International Virtual Aviation Organisation

Russian Federation and Kazakhstan MCD

 

Карточка аэропорта UACP

Внимание!
Информация на этой странице в стадии наполнения.
Если вы не увидели какой-то информации, или заметили неточность - пожалуйста сообщите нам!
Спасибо!
Команда RU-STAFF
Название аэропортаПетропавловск
Название аэропорта (англ.)Petropavlovsk
Превышение459 ft. (139.9 m.)
Координаты54°46.464', 69°11.1'
Высота перехода10000
Эшелон переходаby ATC
Коды ответчика7260-7263
Зона ОрВДНур-Султан РПИ (UACN)
Данные METARUACP 231130Z 21009MPS 9999 SCT033CB M02/M05 Q0993 R23/3/0528 NOSIG RMK QFE732/0977
Проноз погоды (TAF)NODATA
NOTAMshow/hide NOTAM
AWOS   TABLE

Информация о ВПП

ВПП Длина ВПП (м.) Покрытие Курс ВПП Частота ILS
052802Асфальтобетон53 
232802Асфальтобетон233108.3

Диспетчерские позиции

Позывной Наименование органа УВД Частота
UACP_APPПетропавловск Вышка123.7



Спутниковое изображение